LEST

Santiago de Compostela

Airport
ICAO code
LEST
Summary
ICAO Region
EUR
ICAO Territory
Location

Lavacolla,

Coordinates
42° 53' 51" N , 8° 25' 14" W
KCC
Metar
Observation
LEST 050030Z 12005KT 9999 FEW026 BKN049 07/06 Q1009 NOSIG
Station
Santiago / Labacolla
Date/Time
2022-12-05 00:30:00
Wind direction
120°
Wind speed
05 kts
Lowest cloud amount
few clouds
Temperature
7°C
Dew point
6°C
Humidity
93%
QNH
1009 hPa
Weather condition
n/a

Description

Santiago de Compostela Airport is one of the three international airports in Galicia, Spain. It is located in Lavacolla, a town 16 km from Galicia's capital city, Santiago de Compostela.

Climatology

Dry-summer subtropical ”Mediterranean" climate (Köppen climate classification Csa) - characterized by hot, dry summers and mild winters. During the summer, subtropical high pressure cells dominate, making rainfall unlikely except for the occasional thunderstorm. In the winter, periodic storms bring rain (snow at higher elevations).

Runways

Designator Length Width Surface Rops
17/35 3200 45 ASP Yes/Yes

SKYbrary Partners:

Safety knowledge contributed by: